sensor_id;sensor_type;location;lat;lon;timestamp;P1;durP1;ratioP1;P2;durP2;ratioP2
12356;SDS011;6243;51.244;6.774;2023-04-24T00:00:02;2.10;;;1.20;;
12356;SDS011;6243;51.244;6.774;2023-04-24T00:02:28;2.30;;;1.27;;
12356;SDS011;6243;51.244;6.774;2023-04-24T00:04:53;2.10;;;1.30;;
12356;SDS011;6243;51.244;6.774;2023-04-24T00:07:19;2.03;;;1.40;;
12356;SDS011;6243;51.244;6.774;2023-04-24T00:09:44;3.37;;;1.33;;
12356;SDS011;6243;51.244;6.774;2023-04-24T00:12:10;1.40;;;1.30;;
12356;SDS011;6243;51.244;6.774;2023-04-24T00:14:37;1.93;;;1.10;;
12356;SDS011;6243;51.244;6.774;2023-04-24T00:17:02;2.87;;;1.13;;
12356;SDS011;6243;51.244;6.774;2023-04-24T00:19:28;1.97;;;1.30;;
12356;SDS011;6243;51.244;6.774;2023-04-24T00:21:54;2.10;;;1.57;;
12356;SDS011;6243;51.244;6.774;2023-04-24T00:24:20;1.50;;;1.40;;
12356;SDS011;6243;51.244;6.774;2023-04-24T00:26:45;1.23;;;1.13;;
12356;SDS011;6243;51.244;6.774;2023-04-24T00:29:11;1.40;;;1.30;;
12356;SDS011;6243;51.244;6.774;2023-04-24T00:31:38;1.13;;;1.13;;
12356;SDS011;6243;51.244;6.774;2023-04-24T00:34:04;1.40;;;1.30;;
12356;SDS011;6243;51.244;6.774;2023-04-24T00:36:30;2.30;;;1.63;;
12356;SDS011;6243;51.244;6.774;2023-04-24T00:38:55;3.00;;;1.40;;
12356;SDS011;6243;51.244;6.774;2023-04-24T00:41:21;2.07;;;1.53;;
12356;SDS011;6243;51.244;6.774;2023-04-24T00:43:46;1.90;;;1.70;;
12356;SDS011;6243;51.244;6.774;2023-04-24T00:46:12;2.97;;;1.50;;
12356;SDS011;6243;51.244;6.774;2023-04-24T00:48:40;1.90;;;1.70;;
12356;SDS011;6243;51.244;6.774;2023-04-24T00:51:05;1.80;;;1.70;;
12356;SDS011;6243;51.244;6.774;2023-04-24T00:53:31;2.10;;;2.00;;
12356;SDS011;6243;51.244;6.774;2023-04-24T00:55:57;2.00;;;1.90;;
12356;SDS011;6243;51.244;6.774;2023-04-24T00:58:22;1.90;;;1.80;;
12356;SDS011;6243;51.244;6.774;2023-04-24T01:00:49;2.83;;;1.97;;
12356;SDS011;6243;51.244;6.774;2023-04-24T01:03:16;4.07;;;2.00;;
12356;SDS011;6243;51.244;6.774;2023-04-24T01:05:43;2.00;;;1.90;;
12356;SDS011;6243;51.244;6.774;2023-04-24T01:08:09;2.40;;;1.90;;
12356;SDS011;6243;51.244;6.774;2023-04-24T01:10:35;2.20;;;2.00;;
12356;SDS011;6243;51.244;6.774;2023-04-24T01:13:03;2.00;;;1.80;;
12356;SDS011;6243;51.244;6.774;2023-04-24T01:15:29;2.40;;;2.20;;
12356;SDS011;6243;51.244;6.774;2023-04-24T01:17:54;2.83;;;2.30;;
12356;SDS011;6243;51.244;6.774;2023-04-24T01:20:20;2.50;;;2.30;;
12356;SDS011;6243;51.244;6.774;2023-04-24T01:22:47;5.37;;;2.90;;
12356;SDS011;6243;51.244;6.774;2023-04-24T01:25:13;3.30;;;2.43;;
12356;SDS011;6243;51.244;6.774;2023-04-24T01:27:38;2.70;;;2.50;;
12356;SDS011;6243;51.244;6.774;2023-04-24T01:30:05;4.60;;;3.63;;
12356;SDS011;6243;51.244;6.774;2023-04-24T01:32:31;3.87;;;3.40;;
12356;SDS011;6243;51.244;6.774;2023-04-24T01:34:57;4.00;;;3.60;;
12356;SDS011;6243;51.244;6.774;2023-04-24T01:37:23;3.87;;;3.47;;
12356;SDS011;6243;51.244;6.774;2023-04-24T01:39:50;4.40;;;4.00;;
12356;SDS011;6243;51.244;6.774;2023-04-24T01:42:16;5.60;;;4.27;;
12356;SDS011;6243;51.244;6.774;2023-04-24T01:44:41;5.23;;;4.03;;
12356;SDS011;6243;51.244;6.774;2023-04-24T01:47:07;5.57;;;4.70;;
12356;SDS011;6243;51.244;6.774;2023-04-24T01:49:33;6.27;;;4.90;;
12356;SDS011;6243;51.244;6.774;2023-04-24T01:51:58;6.53;;;4.90;;
12356;SDS011;6243;51.244;6.774;2023-04-24T01:54:24;6.70;;;4.70;;
12356;SDS011;6243;51.244;6.774;2023-04-24T01:56:51;6.27;;;5.27;;
12356;SDS011;6243;51.244;6.774;2023-04-24T01:59:16;6.37;;;5.43;;
12356;SDS011;6243;51.244;6.774;2023-04-24T02:01:42;7.00;;;5.93;;
12356;SDS011;6243;51.244;6.774;2023-04-24T02:04:08;8.47;;;5.43;;
12356;SDS011;6243;51.244;6.774;2023-04-24T02:06:33;8.30;;;5.67;;
12356;SDS011;6243;51.244;6.774;2023-04-24T02:08:59;8.33;;;6.13;;
12356;SDS011;6243;51.244;6.774;2023-04-24T02:11:25;7.97;;;5.17;;
12356;SDS011;6243;51.244;6.774;2023-04-24T02:13:52;7.60;;;6.57;;
12356;SDS011;6243;51.244;6.774;2023-04-24T02:16:18;7.50;;;6.10;;
12356;SDS011;6243;51.244;6.774;2023-04-24T02:18:44;8.73;;;6.40;;
12356;SDS011;6243;51.244;6.774;2023-04-24T02:21:09;8.50;;;6.70;;
12356;SDS011;6243;51.244;6.774;2023-04-24T02:23:35;9.13;;;6.53;;
12356;SDS011;6243;51.244;6.774;2023-04-24T02:26:00;9.63;;;7.13;;
12356;SDS011;6243;51.244;6.774;2023-04-24T02:28:26;8.40;;;7.00;;
12356;SDS011;6243;51.244;6.774;2023-04-24T02:30:53;9.80;;;7.53;;
12356;SDS011;6243;51.244;6.774;2023-04-24T02:33:18;9.80;;;7.40;;
12356;SDS011;6243;51.244;6.774;2023-04-24T02:35:44;8.27;;;6.27;;
12356;SDS011;6243;51.244;6.774;2023-04-24T02:38:09;9.13;;;7.40;;
12356;SDS011;6243;51.244;6.774;2023-04-24T02:40:35;11.47;;;7.77;;
12356;SDS011;6243;51.244;6.774;2023-04-24T02:43:00;9.83;;;7.63;;
12356;SDS011;6243;51.244;6.774;2023-04-24T02:45:26;13.27;;;8.10;;
12356;SDS011;6243;51.244;6.774;2023-04-24T02:47:53;11.60;;;8.23;;
12356;SDS011;6243;51.244;6.774;2023-04-24T02:50:18;9.37;;;7.57;;
12356;SDS011;6243;51.244;6.774;2023-04-24T02:52:44;10.87;;;7.70;;
12356;SDS011;6243;51.244;6.774;2023-04-24T02:55:09;11.60;;;7.57;;
12356;SDS011;6243;51.244;6.774;2023-04-24T02:57:35;11.90;;;8.27;;
12356;SDS011;6243;51.244;6.774;2023-04-24T03:00:00;13.03;;;8.20;;
12356;SDS011;6243;51.244;6.774;2023-04-24T03:02:26;12.90;;;9.13;;
12356;SDS011;6243;51.244;6.774;2023-04-24T03:04:53;10.57;;;7.87;;
12356;SDS011;6243;51.244;6.774;2023-04-24T03:07:18;12.07;;;8.23;;
12356;SDS011;6243;51.244;6.774;2023-04-24T03:09:44;13.00;;;8.73;;
12356;SDS011;6243;51.244;6.774;2023-04-24T03:12:09;8.60;;;7.27;;
12356;SDS011;6243;51.244;6.774;2023-04-24T03:14:35;11.30;;;8.63;;
12356;SDS011;6243;51.244;6.774;2023-04-24T03:17:00;9.80;;;8.20;;
12356;SDS011;6243;51.244;6.774;2023-04-24T03:19:26;10.47;;;7.77;;
12356;SDS011;6243;51.244;6.774;2023-04-24T03:21:52;9.77;;;7.17;;
12356;SDS011;6243;51.244;6.774;2023-04-24T03:24:18;10.77;;;8.60;;
12356;SDS011;6243;51.244;6.774;2023-04-24T03:26:43;8.57;;;7.67;;
12356;SDS011;6243;51.244;6.774;2023-04-24T03:29:09;9.10;;;7.47;;
12356;SDS011;6243;51.244;6.774;2023-04-24T03:31:34;10.50;;;7.83;;
12356;SDS011;6243;51.244;6.774;2023-04-24T03:34:00;9.80;;;7.63;;
12356;SDS011;6243;51.244;6.774;2023-04-24T03:36:25;9.50;;;7.70;;
12356;SDS011;6243;51.244;6.774;2023-04-24T03:38:52;10.97;;;8.10;;
12356;SDS011;6243;51.244;6.774;2023-04-24T03:41:18;9.70;;;7.13;;
12356;SDS011;6243;51.244;6.774;2023-04-24T03:43:43;9.90;;;7.67;;
12356;SDS011;6243;51.244;6.774;2023-04-24T03:46:09;10.27;;;7.67;;
12356;SDS011;6243;51.244;6.774;2023-04-24T03:48:34;10.90;;;8.17;;
12356;SDS011;6243;51.244;6.774;2023-04-24T03:51:00;11.20;;;8.47;;
12356;SDS011;6243;51.244;6.774;2023-04-24T03:53:25;12.00;;;8.60;;
12356;SDS011;6243;51.244;6.774;2023-04-24T03:55:52;12.87;;;8.40;;
12356;SDS011;6243;51.244;6.774;2023-04-24T03:58:18;12.10;;;8.40;;
12356;SDS011;6243;51.244;6.774;2023-04-24T04:00:43;11.83;;;8.30;;
12356;SDS011;6243;51.244;6.774;2023-04-24T04:03:09;10.73;;;8.07;;
12356;SDS011;6243;51.244;6.774;2023-04-24T04:05:34;9.20;;;8.07;;
12356;SDS011;6243;51.244;6.774;2023-04-24T04:08:00;7.87;;;7.07;;
12356;SDS011;6243;51.244;6.774;2023-04-24T04:10:25;11.40;;;7.50;;
12356;SDS011;6243;51.244;6.774;2023-04-24T04:12:52;10.47;;;8.00;;
12356;SDS011;6243;51.244;6.774;2023-04-24T04:15:18;10.67;;;7.70;;
12356;SDS011;6243;51.244;6.774;2023-04-24T04:17:43;10.63;;;8.50;;
12356;SDS011;6243;51.244;6.774;2023-04-24T04:20:09;11.57;;;8.50;;
12356;SDS011;6243;51.244;6.774;2023-04-24T04:22:35;10.17;;;8.60;;
12356;SDS011;6243;51.244;6.774;2023-04-24T04:25:01;10.63;;;7.63;;
12356;SDS011;6243;51.244;6.774;2023-04-24T04:27:26;11.00;;;7.93;;
12356;SDS011;6243;51.244;6.774;2023-04-24T04:29:53;9.47;;;7.73;;
12356;SDS011;6243;51.244;6.774;2023-04-24T04:32:18;10.47;;;7.53;;
12356;SDS011;6243;51.244;6.774;2023-04-24T04:34:44;8.47;;;7.23;;
12356;SDS011;6243;51.244;6.774;2023-04-24T04:37:09;8.93;;;7.50;;
12356;SDS011;6243;51.244;6.774;2023-04-24T04:39:35;7.83;;;7.00;;
12356;SDS011;6243;51.244;6.774;2023-04-24T04:42:00;9.83;;;7.17;;
12356;SDS011;6243;51.244;6.774;2023-04-24T04:44:26;7.90;;;6.87;;
12356;SDS011;6243;51.244;6.774;2023-04-24T04:46:53;9.27;;;7.97;;
12356;SDS011;6243;51.244;6.774;2023-04-24T04:49:18;8.03;;;7.17;;
12356;SDS011;6243;51.244;6.774;2023-04-24T04:51:44;10.50;;;7.27;;
12356;SDS011;6243;51.244;6.774;2023-04-24T04:54:09;9.20;;;7.83;;
12356;SDS011;6243;51.244;6.774;2023-04-24T04:56:35;10.00;;;8.30;;
12356;SDS011;6243;51.244;6.774;2023-04-24T04:59:00;10.37;;;8.00;;
12356;SDS011;6243;51.244;6.774;2023-04-24T05:01:26;8.53;;;7.60;;
12356;SDS011;6243;51.244;6.774;2023-04-24T05:03:53;9.47;;;7.53;;
12356;SDS011;6243;51.244;6.774;2023-04-24T05:06:18;11.20;;;8.40;;
12356;SDS011;6243;51.244;6.774;2023-04-24T05:08:44;9.30;;;8.13;;
12356;SDS011;6243;51.244;6.774;2023-04-24T05:11:09;9.40;;;8.23;;
12356;SDS011;6243;51.244;6.774;2023-04-24T05:13:34;11.63;;;8.90;;
12356;SDS011;6243;51.244;6.774;2023-04-24T05:16:00;8.23;;;6.63;;
12356;SDS011;6243;51.244;6.774;2023-04-24T05:18:26;8.37;;;7.47;;
12356;SDS011;6243;51.244;6.774;2023-04-24T05:20:53;11.20;;;7.73;;
12356;SDS011;6243;51.244;6.774;2023-04-24T05:23:18;10.17;;;7.20;;
12356;SDS011;6243;51.244;6.774;2023-04-24T05:25:44;7.60;;;6.73;;
12356;SDS011;6243;51.244;6.774;2023-04-24T05:28:10;7.90;;;7.10;;
12356;SDS011;6243;51.244;6.774;2023-04-24T05:30:36;7.43;;;6.63;;
12356;SDS011;6243;51.244;6.774;2023-04-24T05:33:01;9.83;;;7.70;;
12356;SDS011;6243;51.244;6.774;2023-04-24T05:35:27;7.90;;;6.40;;
12356;SDS011;6243;51.244;6.774;2023-04-24T05:37:54;8.70;;;6.70;;
12356;SDS011;6243;51.244;6.774;2023-04-24T05:40:19;8.03;;;6.37;;
12356;SDS011;6243;51.244;6.774;2023-04-24T05:42:45;7.03;;;6.17;;
12356;SDS011;6243;51.244;6.774;2023-04-24T05:45:10;10.50;;;6.83;;
12356;SDS011;6243;51.244;6.774;2023-04-24T05:47:36;7.40;;;6.67;;
12356;SDS011;6243;51.244;6.774;2023-04-24T05:50:01;7.63;;;6.60;;
12356;SDS011;6243;51.244;6.774;2023-04-24T05:52:27;7.90;;;6.80;;
12356;SDS011;6243;51.244;6.774;2023-04-24T05:54:54;8.03;;;6.80;;
12356;SDS011;6243;51.244;6.774;2023-04-24T05:57:19;6.60;;;5.90;;
12356;SDS011;6243;51.244;6.774;2023-04-24T05:59:45;9.37;;;6.50;;
12356;SDS011;6243;51.244;6.774;2023-04-24T06:02:10;7.87;;;6.33;;
12356;SDS011;6243;51.244;6.774;2023-04-24T06:04:36;7.70;;;6.67;;
12356;SDS011;6243;51.244;6.774;2023-04-24T06:07:01;7.10;;;6.40;;
12356;SDS011;6243;51.244;6.774;2023-04-24T06:09:27;7.63;;;6.57;;
12356;SDS011;6243;51.244;6.774;2023-04-24T06:11:53;6.73;;;6.10;;
12356;SDS011;6243;51.244;6.774;2023-04-24T06:14:19;9.90;;;6.90;;
12356;SDS011;6243;51.244;6.774;2023-04-24T06:16:45;7.63;;;6.33;;
12356;SDS011;6243;51.244;6.774;2023-04-24T06:19:10;6.57;;;5.80;;
12356;SDS011;6243;51.244;6.774;2023-04-24T06:21:36;5.63;;;5.13;;
12356;SDS011;6243;51.244;6.774;2023-04-24T06:24:01;7.33;;;5.37;;
12356;SDS011;6243;51.244;6.774;2023-04-24T06:26:28;5.57;;;5.00;;
12356;SDS011;6243;51.244;6.774;2023-04-24T06:28:55;6.07;;;4.80;;
12356;SDS011;6243;51.244;6.774;2023-04-24T06:31:21;7.63;;;5.13;;
12356;SDS011;6243;51.244;6.774;2023-04-24T06:33:47;7.57;;;5.47;;
12356;SDS011;6243;51.244;6.774;2023-04-24T06:36:13;5.80;;;4.90;;
12356;SDS011;6243;51.244;6.774;2023-04-24T06:38:39;6.30;;;4.87;;
12356;SDS011;6243;51.244;6.774;2023-04-24T06:41:04;5.47;;;4.47;;
12356;SDS011;6243;51.244;6.774;2023-04-24T06:43:30;6.53;;;4.60;;
12356;SDS011;6243;51.244;6.774;2023-04-24T06:45:57;5.37;;;4.87;;
12356;SDS011;6243;51.244;6.774;2023-04-24T06:48:23;8.10;;;5.27;;
12356;SDS011;6243;51.244;6.774;2023-04-24T06:50:49;6.37;;;5.07;;
12356;SDS011;6243;51.244;6.774;2023-04-24T06:53:14;5.90;;;4.73;;
12356;SDS011;6243;51.244;6.774;2023-04-24T06:55:40;5.40;;;4.90;;
12356;SDS011;6243;51.244;6.774;2023-04-24T06:58:05;5.10;;;4.63;;
12356;SDS011;6243;51.244;6.774;2023-04-24T07:00:31;5.40;;;4.50;;
12356;SDS011;6243;51.244;6.774;2023-04-24T07:02:58;5.10;;;4.63;;
12356;SDS011;6243;51.244;6.774;2023-04-24T07:05:23;4.30;;;3.90;;
12356;SDS011;6243;51.244;6.774;2023-04-24T07:07:49;4.27;;;3.87;;
12356;SDS011;6243;51.244;6.774;2023-04-24T07:10:14;3.47;;;3.17;;
12356;SDS011;6243;51.244;6.774;2023-04-24T07:12:40;3.33;;;3.03;;
12356;SDS011;6243;51.244;6.774;2023-04-24T07:15:06;3.57;;;2.90;;
12356;SDS011;6243;51.244;6.774;2023-04-24T07:17:32;3.27;;;2.83;;
12356;SDS011;6243;51.244;6.774;2023-04-24T07:20:00;3.53;;;2.70;;
12356;SDS011;6243;51.244;6.774;2023-04-24T07:22:25;3.57;;;3.00;;
12356;SDS011;6243;51.244;6.774;2023-04-24T07:24:51;2.50;;;2.30;;
12356;SDS011;6243;51.244;6.774;2023-04-24T07:27:16;2.13;;;1.93;;
12356;SDS011;6243;51.244;6.774;2023-04-24T07:29:42;1.60;;;1.50;;
12356;SDS011;6243;51.244;6.774;2023-04-24T07:32:07;2.47;;;1.53;;
12356;SDS011;6243;51.244;6.774;2023-04-24T07:34:33;0.90;;;0.90;;
12356;SDS011;6243;51.244;6.774;2023-04-24T07:37:00;0.77;;;0.77;;
12356;SDS011;6243;51.244;6.774;2023-04-24T07:39:26;0.63;;;0.63;;
12356;SDS011;6243;51.244;6.774;2023-04-24T07:41:52;1.47;;;0.90;;
12356;SDS011;6243;51.244;6.774;2023-04-24T07:44:17;0.80;;;0.70;;
12356;SDS011;6243;51.244;6.774;2023-04-24T07:46:43;0.63;;;0.50;;
12356;SDS011;6243;51.244;6.774;2023-04-24T07:49:09;0.90;;;0.80;;
12356;SDS011;6243;51.244;6.774;2023-04-24T07:51:34;1.53;;;0.57;;
12356;SDS011;6243;51.244;6.774;2023-04-24T07:54:02;0.60;;;0.53;;
12356;SDS011;6243;51.244;6.774;2023-04-24T07:56:27;0.67;;;0.67;;
12356;SDS011;6243;51.244;6.774;2023-04-24T07:58:53;0.90;;;0.77;;
12356;SDS011;6243;51.244;6.774;2023-04-24T08:01:18;1.07;;;0.63;;
12356;SDS011;6243;51.244;6.774;2023-04-24T08:03:44;0.40;;;0.40;;
12356;SDS011;6243;51.244;6.774;2023-04-24T08:06:09;1.03;;;0.90;;
12356;SDS011;6243;51.244;6.774;2023-04-24T08:08:35;0.63;;;0.63;;
12356;SDS011;6243;51.244;6.774;2023-04-24T08:11:02;1.83;;;0.80;;
12356;SDS011;6243;51.244;6.774;2023-04-24T08:13:27;1.47;;;1.00;;
12356;SDS011;6243;51.244;6.774;2023-04-24T08:15:53;2.07;;;1.10;;
12356;SDS011;6243;51.244;6.774;2023-04-24T08:18:19;1.37;;;1.27;;
12356;SDS011;6243;51.244;6.774;2023-04-24T08:20:44;1.10;;;1.00;;
12356;SDS011;6243;51.244;6.774;2023-04-24T08:23:10;1.20;;;1.17;;
12356;SDS011;6243;51.244;6.774;2023-04-24T08:25:35;1.80;;;1.20;;
12356;SDS011;6243;51.244;6.774;2023-04-24T08:28:06;1.80;;;1.13;;
12356;SDS011;6243;51.244;6.774;2023-04-24T08:30:34;1.47;;;1.10;;
12356;SDS011;6243;51.244;6.774;2023-04-24T08:32:59;0.93;;;0.93;;
12356;SDS011;6243;51.244;6.774;2023-04-24T08:35:25;0.80;;;0.80;;
12356;SDS011;6243;51.244;6.774;2023-04-24T08:37:51;1.70;;;1.10;;
12356;SDS011;6243;51.244;6.774;2023-04-24T08:40:17;2.90;;;1.50;;
12356;SDS011;6243;51.244;6.774;2023-04-24T08:42:46;2.03;;;1.40;;
12356;SDS011;6243;51.244;6.774;2023-04-24T08:45:13;2.20;;;1.20;;
12356;SDS011;6243;51.244;6.774;2023-04-24T08:47:40;1.13;;;1.10;;
12356;SDS011;6243;51.244;6.774;2023-04-24T08:50:07;1.63;;;1.40;;
12356;SDS011;6243;51.244;6.774;2023-04-24T08:52:34;2.13;;;1.93;;
12356;SDS011;6243;51.244;6.774;2023-04-24T08:54:59;2.80;;;2.50;;
12356;SDS011;6243;51.244;6.774;2023-04-24T08:57:25;3.73;;;3.00;;
12356;SDS011;6243;51.244;6.774;2023-04-24T08:59:52;3.23;;;2.90;;
12356;SDS011;6243;51.244;6.774;2023-04-24T09:02:20;4.67;;;2.63;;
12356;SDS011;6243;51.244;6.774;2023-04-24T09:04:46;2.40;;;2.20;;
12356;SDS011;6243;51.244;6.774;2023-04-24T09:07:14;3.03;;;2.10;;
12356;SDS011;6243;51.244;6.774;2023-04-24T09:09:42;2.30;;;2.10;;
12356;SDS011;6243;51.244;6.774;2023-04-24T09:12:08;2.97;;;2.00;;
12356;SDS011;6243;51.244;6.774;2023-04-24T09:14:34;3.90;;;2.40;;
12356;SDS011;6243;51.244;6.774;2023-04-24T09:17:00;2.57;;;2.37;;
12356;SDS011;6243;51.244;6.774;2023-04-24T09:19:27;4.60;;;3.20;;
12356;SDS011;6243;51.244;6.774;2023-04-24T09:21:53;3.60;;;2.60;;
12356;SDS011;6243;51.244;6.774;2023-04-24T09:24:19;3.53;;;2.80;;
12356;SDS011;6243;51.244;6.774;2023-04-24T09:26:46;4.07;;;3.17;;
12356;SDS011;6243;51.244;6.774;2023-04-24T09:29:13;5.00;;;3.10;;
12356;SDS011;6243;51.244;6.774;2023-04-24T09:31:40;3.90;;;3.10;;
12356;SDS011;6243;51.244;6.774;2023-04-24T09:34:06;3.57;;;3.10;;
12356;SDS011;6243;51.244;6.774;2023-04-24T09:36:33;4.30;;;3.60;;
12356;SDS011;6243;51.244;6.774;2023-04-24T09:39:00;4.63;;;3.97;;
12356;SDS011;6243;51.244;6.774;2023-04-24T09:41:27;4.20;;;3.70;;
12356;SDS011;6243;51.244;6.774;2023-04-24T09:43:53;4.93;;;3.50;;
12356;SDS011;6243;51.244;6.774;2023-04-24T09:46:19;5.00;;;3.53;;
12356;SDS011;6243;51.244;6.774;2023-04-24T09:48:45;8.60;;;4.10;;
12356;SDS011;6243;51.244;6.774;2023-04-24T09:51:11;7.67;;;4.20;;
12356;SDS011;6243;51.244;6.774;2023-04-24T09:53:38;5.37;;;3.80;;
12356;SDS011;6243;51.244;6.774;2023-04-24T09:56:06;4.23;;;3.70;;
12356;SDS011;6243;51.244;6.774;2023-04-24T09:58:34;4.43;;;3.77;;
12356;SDS011;6243;51.244;6.774;2023-04-24T10:01:00;7.63;;;4.50;;
12356;SDS011;6243;51.244;6.774;2023-04-24T10:03:26;6.30;;;4.47;;
12356;SDS011;6243;51.244;6.774;2023-04-24T10:05:57;6.10;;;4.30;;
12356;SDS011;6243;51.244;6.774;2023-04-24T10:08:23;5.83;;;4.37;;
12356;SDS011;6243;51.244;6.774;2023-04-24T10:10:51;7.60;;;5.40;;
12356;SDS011;6243;51.244;6.774;2023-04-24T10:13:17;8.23;;;4.67;;
12356;SDS011;6243;51.244;6.774;2023-04-24T10:15:43;7.87;;;4.80;;
12356;SDS011;6243;51.244;6.774;2023-04-24T10:18:09;6.60;;;4.43;;
12356;SDS011;6243;51.244;6.774;2023-04-24T10:20:36;6.57;;;5.20;;
12356;SDS011;6243;51.244;6.774;2023-04-24T10:23:03;6.00;;;4.17;;
12356;SDS011;6243;51.244;6.774;2023-04-24T10:25:31;8.00;;;5.50;;
12356;SDS011;6243;51.244;6.774;2023-04-24T10:27:59;9.20;;;5.53;;
12356;SDS011;6243;51.244;6.774;2023-04-24T10:30:26;8.07;;;5.20;;
12356;SDS011;6243;51.244;6.774;2023-04-24T10:32:53;8.87;;;5.80;;
12356;SDS011;6243;51.244;6.774;2023-04-24T10:35:18;7.17;;;5.83;;
12356;SDS011;6243;51.244;6.774;2023-04-24T10:37:45;9.13;;;5.33;;
12356;SDS011;6243;51.244;6.774;2023-04-24T10:40:16;10.07;;;5.70;;
12356;SDS011;6243;51.244;6.774;2023-04-24T10:42:43;7.33;;;5.53;;
12356;SDS011;6243;51.244;6.774;2023-04-24T10:45:17;5.63;;;4.90;;
12356;SDS011;6243;51.244;6.774;2023-04-24T10:47:50;7.00;;;4.60;;
12356;SDS011;6243;51.244;6.774;2023-04-24T10:50:17;6.07;;;4.93;;
12356;SDS011;6243;51.244;6.774;2023-04-24T10:52:45;8.93;;;5.50;;
12356;SDS011;6243;51.244;6.774;2023-04-24T10:55:12;7.57;;;5.33;;
12356;SDS011;6243;51.244;6.774;2023-04-24T10:57:38;8.30;;;5.23;;
12356;SDS011;6243;51.244;6.774;2023-04-24T11:00:10;7.57;;;4.63;;
12356;SDS011;6243;51.244;6.774;2023-04-24T11:02:41;8.83;;;4.30;;
12356;SDS011;6243;51.244;6.774;2023-04-24T11:05:07;7.93;;;4.60;;
12356;SDS011;6243;51.244;6.774;2023-04-24T11:07:42;10.40;;;4.80;;
12356;SDS011;6243;51.244;6.774;2023-04-24T11:10:38;9.70;;;4.40;;
12356;SDS011;6243;51.244;6.774;2023-04-24T11:13:04;9.97;;;4.50;;
12356;SDS011;6243;51.244;6.774;2023-04-24T11:15:30;7.60;;;4.13;;
12356;SDS011;6243;51.244;6.774;2023-04-24T11:17:57;7.60;;;3.57;;
12356;SDS011;6243;51.244;6.774;2023-04-24T11:20:23;5.80;;;2.97;;
12356;SDS011;6243;51.244;6.774;2023-04-24T11:22:49;6.70;;;3.40;;
12356;SDS011;6243;51.244;6.774;2023-04-24T11:25:18;7.43;;;3.40;;
12356;SDS011;6243;51.244;6.774;2023-04-24T11:27:44;7.43;;;3.53;;
12356;SDS011;6243;51.244;6.774;2023-04-24T11:30:10;7.87;;;3.23;;
12356;SDS011;6243;51.244;6.774;2023-04-24T11:32:36;9.27;;;3.00;;
12356;SDS011;6243;51.244;6.774;2023-04-24T11:35:06;7.00;;;3.60;;
12356;SDS011;6243;51.244;6.774;2023-04-24T11:37:34;7.40;;;3.00;;
12356;SDS011;6243;51.244;6.774;2023-04-24T11:40:01;9.60;;;3.73;;
12356;SDS011;6243;51.244;6.774;2023-04-24T11:42:27;7.40;;;3.83;;
12356;SDS011;6243;51.244;6.774;2023-04-24T11:44:53;7.77;;;3.33;;
12356;SDS011;6243;51.244;6.774;2023-04-24T11:47:19;5.50;;;3.67;;
12356;SDS011;6243;51.244;6.774;2023-04-24T11:49:45;8.00;;;3.50;;
12356;SDS011;6243;51.244;6.774;2023-04-24T11:52:12;8.33;;;3.67;;
12356;SDS011;6243;51.244;6.774;2023-04-24T11:54:46;8.27;;;3.60;;
12356;SDS011;6243;51.244;6.774;2023-04-24T11:57:12;6.00;;;3.20;;
12356;SDS011;6243;51.244;6.774;2023-04-24T11:59:38;4.93;;;3.20;;
12356;SDS011;6243;51.244;6.774;2023-04-24T12:02:03;4.97;;;3.47;;
12356;SDS011;6243;51.244;6.774;2023-04-24T12:04:37;5.80;;;2.50;;
12356;SDS011;6243;51.244;6.774;2023-04-24T12:07:04;8.00;;;2.87;;
12356;SDS011;6243;51.244;6.774;2023-04-24T12:09:41;6.47;;;2.90;;
12356;SDS011;6243;51.244;6.774;2023-04-24T12:12:07;6.17;;;3.03;;
12356;SDS011;6243;51.244;6.774;2023-04-24T12:14:33;5.53;;;3.20;;
12356;SDS011;6243;51.244;6.774;2023-04-24T12:17:07;4.67;;;3.03;;
12356;SDS011;6243;51.244;6.774;2023-04-24T12:19:33;5.30;;;2.90;;
12356;SDS011;6243;51.244;6.774;2023-04-24T12:21:59;8.13;;;2.90;;
12356;SDS011;6243;51.244;6.774;2023-04-24T12:24:25;5.30;;;2.70;;
12356;SDS011;6243;51.244;6.774;2023-04-24T12:26:52;7.70;;;3.00;;
12356;SDS011;6243;51.244;6.774;2023-04-24T12:29:19;4.17;;;2.20;;
12356;SDS011;6243;51.244;6.774;2023-04-24T12:31:45;2.93;;;1.83;;
12356;SDS011;6243;51.244;6.774;2023-04-24T12:34:17;4.73;;;2.03;;
12356;SDS011;6243;51.244;6.774;2023-04-24T12:36:43;3.27;;;1.67;;
12356;SDS011;6243;51.244;6.774;2023-04-24T12:39:14;3.20;;;1.80;;
12356;SDS011;6243;51.244;6.774;2023-04-24T12:41:48;3.50;;;1.77;;
12356;SDS011;6243;51.244;6.774;2023-04-24T12:44:28;4.10;;;1.70;;
12356;SDS011;6243;51.244;6.774;2023-04-24T12:46:54;6.13;;;1.90;;
12356;SDS011;6243;51.244;6.774;2023-04-24T12:49:20;1.93;;;1.40;;
12356;SDS011;6243;51.244;6.774;2023-04-24T12:51:45;4.50;;;1.93;;
12356;SDS011;6243;51.244;6.774;2023-04-24T12:54:11;2.57;;;1.60;;
12356;SDS011;6243;51.244;6.774;2023-04-24T12:56:36;6.50;;;1.73;;
12356;SDS011;6243;51.244;6.774;2023-04-24T12:59:03;5.10;;;1.60;;
12356;SDS011;6243;51.244;6.774;2023-04-24T13:01:29;1.40;;;1.20;;
12356;SDS011;6243;51.244;6.774;2023-04-24T13:03:54;3.13;;;1.30;;
12356;SDS011;6243;51.244;6.774;2023-04-24T13:06:20;2.80;;;1.53;;
12356;SDS011;6243;51.244;6.774;2023-04-24T13:08:46;4.30;;;1.27;;
12356;SDS011;6243;51.244;6.774;2023-04-24T13:11:11;1.33;;;1.23;;
12356;SDS011;6243;51.244;6.774;2023-04-24T13:13:36;2.63;;;1.60;;
12356;SDS011;6243;51.244;6.774;2023-04-24T13:16:04;3.03;;;1.17;;
12356;SDS011;6243;51.244;6.774;2023-04-24T13:18:29;2.53;;;1.23;;
12356;SDS011;6243;51.244;6.774;2023-04-24T13:20:55;4.63;;;1.20;;
12356;SDS011;6243;51.244;6.774;2023-04-24T13:23:21;1.93;;;1.30;;
12356;SDS011;6243;51.244;6.774;2023-04-24T13:25:47;2.20;;;1.40;;
12356;SDS011;6243;51.244;6.774;2023-04-24T13:28:12;3.00;;;1.20;;
12356;SDS011;6243;51.244;6.774;2023-04-24T13:30:38;1.50;;;1.00;;
12356;SDS011;6243;51.244;6.774;2023-04-24T13:33:05;1.87;;;1.30;;
12356;SDS011;6243;51.244;6.774;2023-04-24T13:35:30;2.70;;;1.30;;
12356;SDS011;6243;51.244;6.774;2023-04-24T13:37:56;3.13;;;1.40;;
12356;SDS011;6243;51.244;6.774;2023-04-24T13:40:22;2.13;;;1.30;;
12356;SDS011;6243;51.244;6.774;2023-04-24T13:42:48;2.00;;;1.30;;
12356;SDS011;6243;51.244;6.774;2023-04-24T13:45:13;1.90;;;1.37;;
12356;SDS011;6243;51.244;6.774;2023-04-24T13:47:39;3.30;;;1.37;;
12356;SDS011;6243;51.244;6.774;2023-04-24T13:50:06;2.77;;;1.60;;
12356;SDS011;6243;51.244;6.774;2023-04-24T13:52:33;4.00;;;1.93;;
12356;SDS011;6243;51.244;6.774;2023-04-24T13:54:58;3.20;;;1.87;;
12356;SDS011;6243;51.244;6.774;2023-04-24T13:57:24;1.87;;;1.50;;
12356;SDS011;6243;51.244;6.774;2023-04-24T13:59:49;1.73;;;1.17;;
12356;SDS011;6243;51.244;6.774;2023-04-24T14:02:15;2.37;;;1.23;;
12356;SDS011;6243;51.244;6.774;2023-04-24T14:04:41;3.70;;;1.43;;
12356;SDS011;6243;51.244;6.774;2023-04-24T14:07:07;4.10;;;1.50;;
12356;SDS011;6243;51.244;6.774;2023-04-24T14:09:33;2.77;;;1.47;;
12356;SDS011;6243;51.244;6.774;2023-04-24T14:11:59;2.50;;;1.30;;
12356;SDS011;6243;51.244;6.774;2023-04-24T14:14:24;2.30;;;1.57;;
12356;SDS011;6243;51.244;6.774;2023-04-24T14:16:51;2.47;;;1.20;;
12356;SDS011;6243;51.244;6.774;2023-04-24T14:19:16;3.43;;;1.37;;
12356;SDS011;6243;51.244;6.774;2023-04-24T14:21:42;2.57;;;1.37;;
12356;SDS011;6243;51.244;6.774;2023-04-24T14:24:09;2.43;;;1.10;;
12356;SDS011;6243;51.244;6.774;2023-04-24T14:26:35;1.83;;;1.30;;
12356;SDS011;6243;51.244;6.774;2023-04-24T14:29:00;2.83;;;1.50;;
12356;SDS011;6243;51.244;6.774;2023-04-24T14:31:26;1.43;;;1.00;;
12356;SDS011;6243;51.244;6.774;2023-04-24T14:33:52;2.83;;;1.70;;
12356;SDS011;6243;51.244;6.774;2023-04-24T14:36:17;2.50;;;1.57;;
12356;SDS011;6243;51.244;6.774;2023-04-24T14:38:43;1.80;;;1.00;;
12356;SDS011;6243;51.244;6.774;2023-04-24T14:41:10;1.27;;;0.97;;
12356;SDS011;6243;51.244;6.774;2023-04-24T14:43:36;3.60;;;1.13;;
12356;SDS011;6243;51.244;6.774;2023-04-24T14:46:02;1.50;;;1.10;;
12356;SDS011;6243;51.244;6.774;2023-04-24T14:48:27;3.27;;;1.67;;
12356;SDS011;6243;51.244;6.774;2023-04-24T14:50:53;1.37;;;1.00;;
12356;SDS011;6243;51.244;6.774;2023-04-24T14:53:18;2.23;;;1.37;;